Time;durP1;ratioP1;P1;durP2;ratioP2;P2;SDS_P1;SDS_P2;PMS_P1;PMS_P2;Temp;Humidity;BMP_temperature;BMP_pressure;BME280_temperature;BME280_humidity;BME280_pressure;Samples;Min_cycle;Max_cycle;Signal;HPM_P1;HPM_P2
2020/12/18 00:00:16;;;;;;;18.63;10.47;;;3.80;99.90;;;;;;5072891;28;20449;-69
2020/12/18 00:02:43;;;;;;;19.63;11.93;;;3.80;99.90;;;;;;5072883;28;20474;-69
2020/12/18 00:05:10;;;;;;;15.47;10.83;;;3.80;99.90;;;;;;5073108;28;20432;-69
2020/12/18 00:07:37;;;;;;;19.73;11.20;;;3.80;99.90;;;;;;5073283;28;20453;-69
2020/12/18 00:10:07;;;;;;;20.37;11.50;;;3.80;99.90;;;;;;5072815;28;20450;-69
2020/12/18 00:12:34;;;;;;;16.20;12.03;;;3.80;99.90;;;;;;5072809;28;20433;-69
2020/12/18 00:15:00;;;;;;;20.40;12.20;;;3.90;99.90;;;;;;5073085;28;20430;-69
2020/12/18 00:17:27;;;;;;;19.47;11.13;;;3.90;99.90;;;;;;5073153;28;20852;-69
2020/12/18 00:19:53;;;;;;;22.20;11.67;;;3.90;99.90;;;;;;5072525;28;20446;-69
2020/12/18 00:22:21;;;;;;;19.40;12.70;;;3.80;99.90;;;;;;5071179;28;20472;-69
2020/12/18 00:24:48;;;;;;;14.97;9.87;;;3.90;99.90;;;;;;5072723;28;20422;-68
2020/12/18 00:27:14;;;;;;;22.10;12.23;;;3.80;99.90;;;;;;5072422;28;20467;-69
2020/12/18 00:29:41;;;;;;;17.37;11.87;;;3.80;99.90;;;;;;5072087;28;20454;-68
2020/12/18 00:32:08;;;;;;;16.57;10.97;;;3.80;99.90;;;;;;5072621;28;20430;-69
2020/12/18 00:34:34;;;;;;;16.83;10.60;;;3.90;99.90;;;;;;5072683;28;20426;-69
2020/12/18 00:37:01;;;;;;;19.43;10.20;;;3.90;99.90;;;;;;5072552;28;20426;-69
2020/12/18 00:39:28;;;;;;;19.10;12.03;;;3.90;99.90;;;;;;5072304;28;20450;-68
2020/12/18 00:41:55;;;;;;;30.53;12.03;;;3.90;99.90;;;;;;5071821;28;20499;-69
2020/12/18 00:44:22;;;;;;;21.50;12.33;;;3.90;99.90;;;;;;5072213;28;20794;-68
2020/12/18 00:46:49;;;;;;;18.90;11.50;;;3.90;99.90;;;;;;5076375;28;20449;-69
2020/12/18 00:49:15;;;;;;;16.20;10.70;;;3.90;99.90;;;;;;5071767;28;20471;-69
2020/12/18 00:51:42;;;;;;;22.73;12.73;;;4.00;99.90;;;;;;5071927;28;20433;-69
2020/12/18 00:54:09;;;;;;;18.33;11.50;;;4.00;99.90;;;;;;5087089;28;20482;-69
2020/12/18 00:56:36;;;;;;;16.27;10.17;;;4.00;99.90;;;;;;5092059;28;20508;-69
2020/12/18 00:59:03;;;;;;;18.07;12.30;;;4.00;99.90;;;;;;5092548;28;20425;-69
2020/12/18 01:01:30;;;;;;;14.87;10.40;;;4.00;99.90;;;;;;5092065;28;20465;-69
2020/12/18 01:03:56;;;;;;;20.50;11.00;;;4.10;99.90;;;;;;5092411;28;20425;-69
2020/12/18 01:06:23;;;;;;;19.07;10.87;;;4.10;99.90;;;;;;5092260;28;20422;-69
2020/12/18 01:08:50;;;;;;;19.20;11.37;;;4.10;99.90;;;;;;5092290;28;20456;-69
2020/12/18 01:11:19;;;;;;;15.63;10.20;;;4.10;99.90;;;;;;5091628;28;20452;-69
2020/12/18 01:13:47;;;;;;;16.53;11.30;;;4.20;99.90;;;;;;5072082;28;20438;-68
2020/12/18 01:16:13;;;;;;;26.90;10.63;;;4.20;99.90;;;;;;5071710;28;20426;-69
2020/12/18 01:18:40;;;;;;;16.50;10.27;;;4.10;99.90;;;;;;5070950;28;20460;-69
2020/12/18 01:21:07;;;;;;;19.50;10.93;;;4.10;99.90;;;;;;5071295;28;20570;-68
2020/12/18 01:23:34;;;;;;;17.07;11.40;;;4.10;99.90;;;;;;5071711;28;20426;-69
2020/12/18 01:26:00;;;;;;;19.67;11.90;;;4.10;99.90;;;;;;5071524;28;20914;-69
2020/12/18 01:28:27;;;;;;;18.77;12.40;;;4.20;99.90;;;;;;5071390;28;20444;-69
2020/12/18 01:30:55;;;;;;;23.60;14.00;;;4.30;99.90;;;;;;5071333;28;20442;-68
2020/12/18 01:33:21;;;;;;;18.53;11.10;;;4.30;99.90;;;;;;5070746;28;20433;-69
2020/12/18 01:35:48;;;;;;;19.20;11.50;;;4.40;99.90;;;;;;5071351;28;20422;-69
2020/12/18 01:38:14;;;;;;;20.60;12.80;;;4.40;99.90;;;;;;5071341;28;20473;-69
2020/12/18 01:40:41;;;;;;;23.10;12.27;;;4.40;99.90;;;;;;5071210;28;20468;-69
2020/12/18 01:43:08;;;;;;;19.00;11.50;;;4.50;99.90;;;;;;5071340;28;20527;-69
2020/12/18 01:45:35;;;;;;;17.77;11.97;;;4.50;99.90;;;;;;5071454;28;20888;-69
2020/12/18 01:48:02;;;;;;;19.10;12.70;;;4.60;99.90;;;;;;5071089;28;20431;-69
2020/12/18 01:50:31;;;;;;;18.87;11.17;;;4.60;99.90;;;;;;5071013;28;20448;-69
2020/12/18 01:52:58;;;;;;;24.00;12.43;;;4.50;99.90;;;;;;5072825;28;20441;-69
2020/12/18 01:55:27;;;;;;;20.17;12.83;;;4.50;99.90;;;;;;5082075;28;20430;-68
2020/12/18 01:57:54;;;;;;;22.07;12.40;;;4.60;99.90;;;;;;5071126;28;20419;-68
2020/12/18 02:00:21;;;;;;;17.80;9.93;;;4.60;99.90;;;;;;5070805;28;20450;-69
2020/12/18 02:02:48;;;;;;;14.80;10.30;;;4.60;99.90;;;;;;5070566;28;20548;-68
2020/12/18 02:05:16;;;;;;;19.07;11.80;;;4.70;99.90;;;;;;5071128;28;20429;-68
2020/12/18 02:07:58;;;;;;;18.93;11.10;;;4.70;99.90;;;;;;5071026;28;20960;-69
2020/12/18 02:10:25;;;;;;;20.30;11.97;;;4.70;99.90;;;;;;5070985;28;20818;-68
2020/12/18 02:12:51;;;;;;;15.63;10.20;;;4.70;99.90;;;;;;5070646;28;20449;-69
2020/12/18 02:15:20;;;;;;;17.23;10.30;;;4.70;99.90;;;;;;5070930;28;20437;-68
2020/12/18 02:17:48;;;;;;;18.57;10.90;;;4.70;99.90;;;;;;5070943;28;20437;-69
2020/12/18 02:20:16;;;;;;;17.40;10.93;;;4.70;99.90;;;;;;5070647;28;20464;-68
2020/12/18 02:22:43;;;;;;;16.27;10.07;;;4.70;99.90;;;;;;5071145;28;20469;-70
2020/12/18 02:25:12;;;;;;;18.77;10.03;;;4.70;99.90;;;;;;5070960;28;20446;-70
2020/12/18 02:27:40;;;;;;;17.37;11.60;;;4.80;99.90;;;;;;5070935;28;20495;-70
2020/12/18 02:30:09;;;;;;;18.63;10.73;;;4.80;99.90;;;;;;5070153;28;20465;-70
2020/12/18 02:32:36;;;;;;;24.73;14.20;;;4.90;99.90;;;;;;5070796;28;20433;-70
2020/12/18 02:35:04;;;;;;;17.33;11.53;;;5.00;99.90;;;;;;5070685;28;20432;-70
2020/12/18 02:37:30;;;;;;;22.20;11.70;;;4.90;99.90;;;;;;5070668;28;20487;-70
2020/12/18 02:39:57;;;;;;;25.57;10.70;;;4.90;99.90;;;;;;5070444;28;20453;-70
2020/12/18 02:42:30;;;;;;;21.83;13.10;;;4.90;99.90;;;;;;5070441;28;20524;-70
2020/12/18 02:44:58;;;;;;;24.17;13.40;;;4.90;99.90;;;;;;5071748;28;20432;-70
2020/12/18 02:47:24;;;;;;;25.10;12.37;;;4.90;99.90;;;;;;5074552;28;20422;-70
2020/12/18 02:49:51;;;;;;;21.90;13.00;;;4.90;99.90;;;;;;5074542;28;20452;-70
2020/12/18 02:52:18;;;;;;;19.63;12.57;;;4.90;99.90;;;;;;5074267;28;20456;-69
2020/12/18 02:54:44;;;;;;;20.33;11.90;;;4.90;99.90;;;;;;5078473;28;20443;-70
2020/12/18 02:57:11;;;;;;;22.23;13.47;;;4.90;99.90;;;;;;5083441;28;20486;-70
2020/12/18 02:59:37;;;;;;;18.10;12.07;;;4.90;99.90;;;;;;5074286;28;20468;-70
2020/12/18 03:02:05;;;;;;;24.47;11.77;;;4.90;99.90;;;;;;5073541;28;20465;-69
2020/12/18 03:04:32;;;;;;;23.53;12.83;;;4.90;99.90;;;;;;5073898;28;20426;-69
2020/12/18 03:06:58;;;;;;;19.10;11.80;;;4.80;99.90;;;;;;5074056;28;20430;-70
2020/12/18 03:09:25;;;;;;;20.53;12.90;;;4.80;99.90;;;;;;5074594;28;20442;-70
2020/12/18 03:11:52;;;;;;;18.23;12.17;;;4.70;99.90;;;;;;5073842;28;20472;-69
2020/12/18 03:14:18;;;;;;;21.80;11.73;;;4.80;99.90;;;;;;5074138;28;20425;-70
2020/12/18 03:16:45;;;;;;;19.43;10.67;;;4.80;99.90;;;;;;5073904;28;20422;-70
2020/12/18 03:19:13;;;;;;;16.43;11.27;;;4.80;99.90;;;;;;5074158;28;20429;-70
2020/12/18 03:21:40;;;;;;;19.53;11.40;;;4.80;99.90;;;;;;5073749;28;20462;-70
2020/12/18 03:24:09;;;;;;;17.93;10.53;;;4.80;99.90;;;;;;5073826;28;20478;-70
2020/12/18 03:26:36;;;;;;;22.10;12.37;;;4.80;99.90;;;;;;5073870;28;20422;-69
2020/12/18 03:29:03;;;;;;;22.87;12.40;;;4.80;99.90;;;;;;5073330;28;20438;-69
2020/12/18 03:31:29;;;;;;;18.83;11.77;;;4.80;99.90;;;;;;5073518;28;20465;-70
2020/12/18 03:33:56;;;;;;;19.53;10.97;;;4.70;99.90;;;;;;5073811;28;20436;-69
2020/12/18 03:36:24;;;;;;;18.47;11.10;;;4.70;99.90;;;;;;5073624;28;20422;-70
2020/12/18 03:38:50;;;;;;;17.07;11.40;;;4.70;99.90;;;;;;5073806;28;20847;-69
2020/12/18 03:41:17;;;;;;;21.40;11.50;;;4.70;99.90;;;;;;5073230;28;20461;-69
2020/12/18 03:43:44;;;;;;;18.33;12.00;;;4.60;99.90;;;;;;5073554;28;20418;-69
2020/12/18 03:46:12;;;;;;;17.57;10.77;;;4.60;99.90;;;;;;5073333;28;20429;-70
2020/12/18 03:48:38;;;;;;;22.67;11.20;;;4.50;99.90;;;;;;5073469;28;20787;-69
2020/12/18 03:51:05;;;;;;;19.57;11.80;;;4.50;99.90;;;;;;5073039;28;20465;-69
2020/12/18 03:53:32;;;;;;;20.47;11.60;;;4.50;99.90;;;;;;5073083;28;20426;-69
2020/12/18 03:55:59;;;;;;;18.67;12.07;;;4.50;99.90;;;;;;5080264;28;20428;-70
2020/12/18 03:58:26;;;;;;;16.93;9.83;;;4.50;99.90;;;;;;5093387;28;20435;-69
2020/12/18 04:00:52;;;;;;;18.23;10.37;;;4.60;99.90;;;;;;5083767;28;20453;-69
2020/12/18 04:03:19;;;;;;;18.17;12.50;;;4.50;99.90;;;;;;5073480;28;20466;-70
2020/12/18 04:05:46;;;;;;;16.37;10.47;;;4.50;99.90;;;;;;5079143;28;20775;-70
2020/12/18 04:08:12;;;;;;;13.73;9.43;;;4.40;99.90;;;;;;5072409;28;20434;-69
2020/12/18 04:10:40;;;;;;;13.37;10.00;;;4.30;99.90;;;;;;5080172;28;20448;-69
2020/12/18 04:13:07;;;;;;;16.00;9.37;;;4.40;99.90;;;;;;5088831;28;20430;-70
2020/12/18 04:15:34;;;;;;;13.97;10.40;;;4.40;99.90;;;;;;5072919;28;20429;-71
2020/12/18 04:18:01;;;;;;;13.10;8.53;;;4.40;99.90;;;;;;5072957;28;20436;-70
2020/12/18 04:20:28;;;;;;;11.57;8.97;;;4.40;99.90;;;;;;5072738;28;20972;-70
2020/12/18 04:22:54;;;;;;;15.20;9.40;;;4.40;99.90;;;;;;5072821;28;20465;-70
2020/12/18 04:25:21;;;;;;;12.87;9.20;;;4.30;99.90;;;;;;5072745;28;20425;-70
2020/12/18 04:27:48;;;;;;;17.07;10.77;;;4.30;99.90;;;;;;5072750;28;20448;-71
2020/12/18 04:30:15;;;;;;;15.60;9.87;;;4.20;99.90;;;;;;5072465;28;20450;-71
2020/12/18 04:32:42;;;;;;;12.80;8.87;;;4.30;99.90;;;;;;5072557;28;20440;-71
2020/12/18 04:35:09;;;;;;;13.00;8.87;;;4.30;99.90;;;;;;5072626;28;20421;-71
2020/12/18 04:37:35;;;;;;;13.30;8.83;;;4.30;99.90;;;;;;5072680;28;20521;-71
2020/12/18 04:40:03;;;;;;;18.03;8.77;;;4.20;99.90;;;;;;5072250;28;21005;-70
2020/12/18 04:42:31;;;;;;;13.30;8.90;;;4.10;99.90;;;;;;5072553;28;20896;-70
2020/12/18 04:45:00;;;;;;;14.47;8.50;;;4.10;99.90;;;;;;5072348;28;20426;-71
2020/12/18 04:47:27;;;;;;;18.77;9.10;;;3.90;99.90;;;;;;5072265;28;20430;-71
2020/12/18 04:49:55;;;;;;;13.73;9.23;;;3.80;99.90;;;;;;5072162;28;20442;-71
2020/12/18 04:52:23;;;;;;;12.33;9.43;;;3.80;99.90;;;;;;5072155;28;20448;-70
2020/12/18 04:54:51;;;;;;;15.50;8.53;;;3.80;99.90;;;;;;5072379;28;20426;-70
2020/12/18 04:57:20;;;;;;;14.77;9.10;;;3.70;99.90;;;;;;5072371;28;20469;-71
2020/12/18 04:59:49;;;;;;;16.13;9.00;;;3.60;99.90;;;;;;5072099;28;20446;-71
2020/12/18 05:02:16;;;;;;;12.07;8.43;;;3.60;99.90;;;;;;5071860;28;20465;-70
2020/12/18 05:04:43;;;;;;;12.27;8.13;;;3.50;99.90;;;;;;5071984;28;20912;-70
2020/12/18 05:07:10;;;;;;;13.90;8.50;;;3.40;99.90;;;;;;5072025;28;20438;-71
2020/12/18 05:09:37;;;;;;;10.90;8.00;;;3.40;99.90;;;;;;5071921;28;20441;-70
2020/12/18 05:12:07;;;;;;;14.00;9.80;;;3.30;99.90;;;;;;5071718;28;20475;-70
2020/12/18 05:14:34;;;;;;;16.17;9.00;;;3.30;99.90;;;;;;5071850;28;20425;-70
2020/12/18 05:17:05;;;;;;;15.27;7.70;;;3.20;99.90;;;;;;5071896;28;20429;-70
2020/12/18 05:19:36;;;;;;;12.90;8.20;;;3.20;99.90;;;;;;5071689;28;20450;-70
2020/12/18 05:22:05;;;;;;;17.60;8.50;;;3.20;99.90;;;;;;5071420;28;20462;-70
2020/12/18 05:24:31;;;;;;;14.70;9.30;;;3.10;99.90;;;;;;5071285;28;20442;-71
2020/12/18 05:27:00;;;;;;;13.07;8.90;;;3.10;99.90;;;;;;5071680;28;20450;-71
2020/12/18 05:29:30;;;;;;;12.83;9.53;;;3.10;99.90;;;;;;5071730;28;20461;-70
2020/12/18 05:31:58;;;;;;;13.33;9.90;;;3.00;99.90;;;;;;5088581;28;20437;-71
2020/12/18 05:34:25;;;;;;;18.03;10.30;;;3.00;99.90;;;;;;5091739;28;20437;-71
2020/12/18 05:36:53;;;;;;;15.80;9.60;;;3.00;99.90;;;;;;5091561;28;20863;-71
2020/12/18 05:39:20;;;;;;;13.53;8.93;;;3.00;99.90;;;;;;5091958;28;20938;-71
2020/12/18 05:41:56;;;;;;;16.50;10.70;;;3.00;99.90;;;;;;5092153;28;20436;-71
2020/12/18 05:44:26;;;;;;;15.87;10.53;;;2.90;99.90;;;;;;5091713;28;20553;-70
2020/12/18 05:47:01;;;;;;;17.90;9.50;;;2.90;99.90;;;;;;5091751;28;20437;-71
2020/12/18 05:49:30;;;;;;;16.20;10.67;;;2.90;99.90;;;;;;5092211;28;20448;-71
2020/12/18 05:51:57;;;;;;;17.03;11.20;;;2.80;99.90;;;;;;5091684;28;20433;-71
2020/12/18 05:54:32;;;;;;;18.27;10.23;;;2.80;99.90;;;;;;5091695;28;20425;-71
2020/12/18 05:56:59;;;;;;;21.60;10.20;;;2.80;99.90;;;;;;5091813;28;20444;-71
2020/12/18 05:59:29;;;;;;;25.57;9.63;;;2.80;99.90;;;;;;5091221;28;20457;-71
2020/12/18 06:01:58;;;;;;;15.20;9.60;;;2.80;99.90;;;;;;5092417;28;20522;-71
2020/12/18 06:04:25;;;;;;;14.87;9.10;;;2.80;99.90;;;;;;5091556;28;20455;-71
2020/12/18 06:06:53;;;;;;;12.50;8.87;;;2.70;99.90;;;;;;5086396;28;20433;-71
2020/12/18 06:09:22;;;;;;;15.80;9.70;;;2.70;99.90;;;;;;5071090;28;20422;-71
2020/12/18 06:11:50;;;;;;;13.03;9.43;;;2.60;99.90;;;;;;5070691;28;20791;-71
2020/12/18 06:14:17;;;;;;;13.60;7.43;;;2.60;99.90;;;;;;5071196;28;20934;-71
2020/12/18 06:16:46;;;;;;;12.43;8.23;;;2.50;99.90;;;;;;5070938;28;20429;-71
2020/12/18 06:19:15;;;;;;;13.50;8.10;;;2.50;99.90;;;;;;5071665;28;20438;-71
2020/12/18 06:21:49;;;;;;;12.00;8.40;;;2.50;99.90;;;;;;5088535;28;20443;-71
2020/12/18 06:24:16;;;;;;;11.70;7.83;;;2.50;99.90;;;;;;5091057;28;20429;-71
2020/12/18 06:26:45;;;;;;;11.40;7.83;;;2.50;99.90;;;;;;5084869;28;20457;-71
2020/12/18 06:29:16;;;;;;;13.67;7.73;;;2.40;99.90;;;;;;5070566;28;20441;-71
2020/12/18 06:31:43;;;;;;;14.70;9.03;;;2.60;99.90;;;;;;5071466;28;20841;-71
2020/12/18 06:34:10;;;;;;;9.53;6.80;;;2.50;99.90;;;;;;5070788;28;20965;-71
2020/12/18 06:36:59;;;;;;;9.50;6.43;;;2.50;99.90;;;;;;5071063;28;20950;-71
2020/12/18 06:39:28;;;;;;;8.60;6.10;;;2.40;99.90;;;;;;5071232;28;20450;-71
2020/12/18 06:42:15;;;;;;;7.00;5.40;;;2.50;99.90;;;;;;5072413;28;20421;-72
2020/12/18 06:44:43;;;;;;;10.80;6.57;;;2.40;99.90;;;;;;5072052;28;20483;-72
2020/12/18 06:47:15;;;;;;;11.50;7.63;;;2.40;99.90;;;;;;5071334;28;20457;-72
2020/12/18 06:50:08;;;;;;;14.10;8.37;;;2.50;99.90;;;;;;5070878;28;20499;-70
2020/12/18 06:52:44;;;;;;;12.30;7.80;;;2.50;99.90;;;;;;5070340;28;20517;-71
2020/12/18 06:55:12;;;;;;;9.40;7.30;;;2.50;99.90;;;;;;5070665;28;20418;-71
2020/12/18 06:57:40;;;;;;;10.87;6.63;;;2.40;99.90;;;;;;5070777;28;20421;-71
2020/12/18 07:00:28;;;;;;;16.17;7.17;;;2.40;99.90;;;;;;5070401;28;20842;-71
2020/12/18 07:02:56;;;;;;;11.40;7.00;;;2.30;99.90;;;;;;5070161;28;20865;-70
2020/12/18 07:05:34;;;;;;;11.53;6.70;;;2.30;99.90;;;;;;5070651;28;20444;-72
2020/12/18 07:08:02;;;;;;;9.17;6.07;;;2.30;99.90;;;;;;5079099;28;20950;-70
2020/12/18 07:10:30;;;;;;;9.43;6.03;;;2.30;99.90;;;;;;5086878;28;20595;-70
2020/12/18 07:12:59;;;;;;;10.30;6.13;;;2.50;99.90;;;;;;5082106;28;20497;-70
2020/12/18 07:15:52;;;;;;;11.00;8.40;;;2.50;99.90;;;;;;5069949;28;20438;-71
2020/12/18 07:18:24;;;;;;;13.90;9.17;;;2.50;99.90;;;;;;5070310;28;20422;-71
2020/12/18 07:20:52;;;;;;;20.60;12.73;;;2.60;99.90;;;;;;5069932;28;20468;-68
2020/12/18 07:23:19;;;;;;;18.50;12.50;;;2.70;99.90;;;;;;5069904;28;20884;-70
2020/12/18 07:25:46;;;;;;;28.30;17.30;;;2.70;99.90;;;;;;5070137;28;20476;-71
2020/12/18 07:28:14;;;;;;;27.07;18.00;;;2.70;99.90;;;;;;5070044;28;20441;-70
2020/12/18 07:30:42;;;;;;;20.73;15.00;;;2.70;99.90;;;;;;5070528;28;20446;-70
2020/12/18 07:33:11;;;;;;;17.70;14.13;;;2.70;99.90;;;;;;5073421;28;20438;-71
2020/12/18 07:35:42;;;;;;;19.03;13.40;;;2.60;99.90;;;;;;5073740;28;20931;-70
2020/12/18 07:38:14;;;;;;;15.27;12.20;;;2.60;99.90;;;;;;5073309;28;20788;-70
2020/12/18 07:40:41;;;;;;;15.23;11.70;;;2.60;99.90;;;;;;5073437;28;20453;-72
2020/12/18 07:43:09;;;;;;;13.20;11.10;;;2.60;99.90;;;;;;5073690;28;20469;-69
2020/12/18 07:45:41;;;;;;;16.30;10.83;;;2.70;99.90;;;;;;5073253;28;20426;-69
2020/12/18 07:48:12;;;;;;;15.53;10.60;;;2.70;99.90;;;;;;5073494;28;20426;-70
2020/12/18 07:50:39;;;;;;;10.53;9.40;;;2.70;99.90;;;;;;5073344;28;20799;-71
2020/12/18 07:53:10;;;;;;;12.83;10.27;;;2.70;99.90;;;;;;5073328;28;20438;-69
2020/12/18 07:55:37;;;;;;;11.90;9.03;;;2.80;99.90;;;;;;5073571;28;20418;-70
2020/12/18 07:58:07;;;;;;;15.67;8.77;;;2.80;99.90;;;;;;5073371;28;20426;-70
2020/12/18 08:00:33;;;;;;;10.23;8.17;;;2.90;99.90;;;;;;5072827;28;20854;-69
2020/12/18 08:03:01;;;;;;;11.33;8.40;;;2.90;99.90;;;;;;5072487;28;20473;-69
2020/12/18 08:05:28;;;;;;;10.43;7.13;;;3.00;99.90;;;;;;5073301;28;20499;-70
2020/12/18 08:07:59;;;;;;;14.37;7.50;;;3.10;99.90;;;;;;5073228;28;20430;-67
2020/12/18 08:10:26;;;;;;;14.30;8.87;;;3.20;99.90;;;;;;5073425;28;20523;-67
2020/12/18 08:12:53;;;;;;;12.17;7.47;;;3.30;99.90;;;;;;5072818;28;20430;-67
2020/12/18 08:15:21;;;;;;;12.50;7.13;;;3.30;99.90;;;;;;5072629;28;20426;-67
2020/12/18 08:17:47;;;;;;;12.27;7.97;;;3.40;99.90;;;;;;5079649;28;20938;-67
2020/12/18 08:20:15;;;;;;;12.10;8.17;;;3.50;99.90;;;;;;5082539;28;20471;-67
2020/12/18 08:22:44;;;;;;;10.63;7.70;;;3.60;99.90;;;;;;5083581;28;20456;-67
2020/12/18 08:25:13;;;;;;;11.80;8.13;;;3.70;99.90;;;;;;5073760;28;20438;-68
2020/12/18 08:27:46;;;;;;;14.10;8.87;;;3.70;99.90;;;;;;5072967;28;20467;-70
2020/12/18 08:30:17;;;;;;;10.57;7.30;;;3.90;99.90;;;;;;5071946;28;20497;-67
2020/12/18 08:32:52;;;;;;;12.33;7.30;;;3.90;99.90;;;;;;5072072;28;20426;-69
2020/12/18 08:35:21;;;;;;;10.17;7.70;;;4.00;99.90;;;;;;5072760;28;20828;-69
2020/12/18 08:37:48;;;;;;;9.80;7.20;;;4.10;99.90;;;;;;5072656;28;20425;-70
2020/12/18 08:40:22;;;;;;;10.33;7.73;;;4.10;99.90;;;;;;5072716;28;20453;-68
2020/12/18 08:42:59;;;;;;;10.97;8.23;;;4.20;99.90;;;;;;5071116;28;20473;-68
2020/12/18 08:45:26;;;;;;;12.63;8.40;;;4.20;99.90;;;;;;5072003;28;20954;-69
2020/12/18 08:47:53;;;;;;;11.73;7.60;;;4.30;99.90;;;;;;5072064;28;20919;-69
2020/12/18 08:50:22;;;;;;;9.40;7.60;;;4.30;99.90;;;;;;5072283;28;20499;-69
2020/12/18 08:52:48;;;;;;;8.87;6.50;;;4.40;99.90;;;;;;5072115;28;20437;-70
2020/12/18 08:55:20;;;;;;;18.60;11.60;;;4.50;99.90;;;;;;5072029;28;20787;-69
2020/12/18 08:57:47;;;;;;;26.10;16.27;;;4.60;99.90;;;;;;5072235;28;20768;-69
2020/12/18 09:00:15;;;;;;;12.83;9.53;;;4.70;99.90;;;;;;5072025;28;20448;-69
2020/12/18 09:02:44;;;;;;;11.07;7.83;;;4.80;99.90;;;;;;5071628;28;20996;-70
2020/12/18 09:05:17;;;;;;;8.90;6.43;;;4.90;99.90;;;;;;5072299;28;20468;-71
2020/12/18 09:07:48;;;;;;;10.47;7.23;;;5.00;99.90;;;;;;5071954;28;20433;-69
2020/12/18 09:10:26;;;;;;;13.70;10.50;;;5.10;99.90;;;;;;5071946;28;20438;-70
2020/12/18 09:12:53;;;;;;;11.17;7.13;;;5.30;99.90;;;;;;5071300;28;20441;-70
2020/12/18 09:15:22;;;;;;;9.03;7.47;;;5.40;99.90;;;;;;5071913;28;20422;-69
2020/12/18 09:18:02;;;;;;;11.97;7.83;;;5.40;99.90;;;;;;5071711;28;20923;-69
2020/12/18 09:20:30;;;;;;;17.07;10.37;;;5.50;99.90;;;;;;5071553;28;20446;-70
2020/12/18 09:23:02;;;;;;;19.53;12.93;;;5.50;99.90;;;;;;5071464;28;20990;-70
2020/12/18 09:25:30;;;;;;;15.80;9.97;;;5.60;99.90;;;;;;5072583;28;20450;-68
2020/12/18 09:27:58;;;;;;;7.13;6.27;;;5.60;99.90;;;;;;5071585;28;20564;-67
2020/12/18 09:30:27;;;;;;;8.90;6.80;;;5.70;99.90;;;;;;5071267;28;21004;-68
2020/12/18 09:33:09;;;;;;;12.17;8.30;;;5.70;99.90;;;;;;5071053;28;20787;-68
2020/12/18 09:35:36;;;;;;;11.30;7.17;;;5.80;99.90;;;;;;5071934;28;20494;-68
2020/12/18 09:38:04;;;;;;;13.30;9.10;;;5.90;99.90;;;;;;5072980;28;20433;-68
2020/12/18 09:40:34;;;;;;;10.03;7.80;;;6.00;99.90;;;;;;5083657;28;20452;-70
2020/12/18 09:43:01;;;;;;;10.33;6.87;;;6.10;99.90;;;;;;5082874;28;20473;-69
2020/12/18 09:45:27;;;;;;;12.60;6.97;;;6.20;99.90;;;;;;5070730;28;20464;-70
2020/12/18 09:47:54;;;;;;;9.67;7.17;;;6.30;99.90;;;;;;5070722;28;20502;-69
2020/12/18 09:50:21;;;;;;;8.07;6.50;;;6.30;99.90;;;;;;5071139;28;20446;-70
2020/12/18 09:52:47;;;;;;;12.27;6.70;;;6.40;99.90;;;;;;5071054;28;20426;-69
2020/12/18 09:55:15;;;;;;;16.43;10.47;;;6.50;99.90;;;;;;5070831;28;20435;-71
2020/12/18 09:57:42;;;;;;;15.17;8.40;;;6.60;99.90;;;;;;5071002;28;20490;-70
2020/12/18 10:00:09;;;;;;;14.40;9.37;;;6.70;99.90;;;;;;5071310;28;20442;-69
2020/12/18 10:02:36;;;;;;;9.50;6.67;;;6.80;99.90;;;;;;5070636;28;20466;-71
2020/12/18 10:05:04;;;;;;;12.53;7.70;;;6.90;99.90;;;;;;5071100;28;20428;-69
2020/12/18 10:07:34;;;;;;;9.17;7.00;;;6.90;99.90;;;;;;5070477;28;20477;-70
2020/12/18 10:10:00;;;;;;;14.20;7.40;;;6.90;99.90;;;;;;5071071;28;20454;-69
2020/12/18 10:12:28;;;;;;;29.13;17.47;;;6.90;99.90;;;;;;5070789;28;20525;-69
2020/12/18 10:14:55;;;;;;;11.43;8.63;;;6.90;99.90;;;;;;5070471;28;20422;-69
2020/12/18 10:17:21;;;;;;;37.20;20.73;;;7.00;99.90;;;;;;5070545;28;20426;-69
2020/12/18 10:19:48;;;;;;;11.03;7.60;;;7.10;99.90;;;;;;5070942;28;20453;-69
2020/12/18 10:22:15;;;;;;;18.10;7.50;;;7.10;99.90;;;;;;5070558;28;20426;-69
2020/12/18 10:24:42;;;;;;;7.80;6.70;;;7.20;99.90;;;;;;5070386;28;20788;-69
2020/12/18 10:27:08;;;;;;;17.60;8.43;;;7.20;99.90;;;;;;5070712;28;20454;-70
2020/12/18 10:29:36;;;;;;;7.70;6.70;;;7.30;99.90;;;;;;5070731;28;20482;-69
2020/12/18 10:32:03;;;;;;;11.10;6.83;;;7.40;99.90;;;;;;5069724;28;20450;-70
2020/12/18 10:34:29;;;;;;;9.20;6.30;;;7.40;99.90;;;;;;5070777;28;20517;-69
2020/12/18 10:36:57;;;;;;;24.67;7.10;;;7.40;99.90;;;;;;5078456;28;20441;-69
2020/12/18 10:39:24;;;;;;;5.70;5.10;;;7.40;99.90;;;;;;5086213;28;20427;-69
2020/12/18 10:41:52;;;;;;;10.33;6.57;;;7.40;99.90;;;;;;5086543;28;20433;-69
2020/12/18 10:44:19;;;;;;;10.33;7.90;;;7.40;99.90;;;;;;5070461;28;20475;-69
2020/12/18 10:46:48;;;;;;;7.93;6.37;;;7.50;99.90;;;;;;5070338;28;20983;-69
2020/12/18 10:49:17;;;;;;;11.53;5.60;;;7.40;99.90;;;;;;5070584;28;20426;-68
2020/12/18 10:51:45;;;;;;;11.70;7.60;;;7.40;99.90;;;;;;5072775;28;20814;-70
2020/12/18 10:54:12;;;;;;;11.83;6.80;;;7.50;99.90;;;;;;5077036;28;20768;-69
2020/12/18 10:56:42;;;;;;;6.20;5.43;;;7.60;99.90;;;;;;5070413;28;20434;-70
2020/12/18 10:59:11;;;;;;;7.90;5.13;;;7.70;99.90;;;;;;5070490;28;20450;-70
2020/12/18 11:01:38;;;;;;;11.80;6.43;;;7.80;99.90;;;;;;5069875;28;20427;-71
2020/12/18 11:04:06;;;;;;;8.10;6.00;;;7.90;99.90;;;;;;5070273;28;20479;-68
2020/12/18 11:06:37;;;;;;;10.47;6.10;;;8.00;99.90;;;;;;5072678;28;20430;-70
2020/12/18 11:09:03;;;;;;;7.47;5.40;;;8.00;99.90;;;;;;5073740;28;20430;-70
2020/12/18 11:11:30;;;;;;;20.93;6.33;;;8.00;99.90;;;;;;5074032;28;20928;-69
2020/12/18 11:13:57;;;;;;;27.00;10.90;;;8.10;99.90;;;;;;5074521;28;20787;-69
2020/12/18 11:16:24;;;;;;;64.97;33.47;;;8.20;99.90;;;;;;5073938;28;20752;-70
2020/12/18 11:18:51;;;;;;;22.63;13.30;;;8.20;99.90;;;;;;5074291;28;20441;-69
2020/12/18 11:21:18;;;;;;;10.40;6.93;;;8.20;99.90;;;;;;5073792;28;20459;-70
2020/12/18 11:23:45;;;;;;;16.27;8.80;;;8.30;99.90;;;;;;5073851;28;20469;-69
2020/12/18 11:26:12;;;;;;;10.93;6.47;;;8.20;99.90;;;;;;5073639;28;20430;-71
2020/12/18 11:28:39;;;;;;;9.57;5.67;;;8.10;99.90;;;;;;5073947;28;20443;-69
2020/12/18 11:31:06;;;;;;;16.80;6.83;;;8.10;99.90;;;;;;5072745;28;20529;-69
2020/12/18 11:33:33;;;;;;;19.50;13.57;;;8.20;99.90;;;;;;5073660;28;20435;-69
2020/12/18 11:35:59;;;;;;;15.87;8.70;;;8.30;99.90;;;;;;5077510;28;20486;-69
2020/12/18 11:38:27;;;;;;;12.00;7.40;;;8.30;99.90;;;;;;5084175;28;20962;-69
2020/12/18 11:40:54;;;;;;;17.40;9.80;;;8.50;99.90;;;;;;5078526;28;20487;-69
2020/12/18 11:43:21;;;;;;;23.30;9.43;;;8.60;99.90;;;;;;5073435;28;20469;-69
2020/12/18 11:45:47;;;;;;;26.63;10.20;;;8.70;99.90;;;;;;5073364;28;20791;-68
2020/12/18 11:48:14;;;;;;;28.50;18.00;;;8.90;99.90;;;;;;5073131;28;20495;-68
2020/12/18 11:50:41;;;;;;;21.33;9.10;;;8.90;99.90;;;;;;5073119;28;20515;-70
2020/12/18 11:53:09;;;;;;;29.13;9.47;;;9.00;99.90;;;;;;5073480;28;20799;-69
2020/12/18 11:55:38;;;;;;;12.20;8.17;;;9.00;99.90;;;;;;5073244;28;20483;-69
2020/12/18 11:58:05;;;;;;;15.73;8.17;;;9.10;99.90;;;;;;5090987;28;20533;-70
2020/12/18 12:00:32;;;;;;;13.90;9.50;;;9.30;99.90;;;;;;5092688;28;20455;-69
2020/12/18 12:02:59;;;;;;;17.97;10.30;;;9.30;99.90;;;;;;5092992;28;20465;-70
2020/12/18 12:05:25;;;;;;;24.30;12.30;;;9.40;99.90;;;;;;5093367;28;20429;-68
2020/12/18 12:07:53;;;;;;;10.40;7.60;;;9.50;99.90;;;;;;5093428;28;20420;-69
2020/12/18 12:10:20;;;;;;;10.57;7.60;;;9.50;99.90;;;;;;5080386;28;20461;-69
2020/12/18 12:12:48;;;;;;;13.83;7.97;;;9.50;99.90;;;;;;5072893;28;20430;-70
2020/12/18 12:15:17;;;;;;;15.60;8.87;;;9.60;99.90;;;;;;5072997;28;20434;-68
2020/12/18 12:17:43;;;;;;;13.10;8.20;;;9.70;99.90;;;;;;5072478;28;20445;-69
2020/12/18 12:20:10;;;;;;;15.30;11.77;;;9.80;99.90;;;;;;5073030;28;20499;-69
2020/12/18 12:22:40;;;;;;;10.97;7.20;;;9.90;99.90;;;;;;5072571;28;20468;-69
2020/12/18 12:25:07;;;;;;;10.77;8.17;;;9.90;99.90;;;;;;5072830;28;20440;-70
2020/12/18 12:27:33;;;;;;;12.87;8.60;;;10.00;99.90;;;;;;5072189;28;20426;-70
2020/12/18 12:30:02;;;;;;;11.07;7.00;;;10.00;99.90;;;;;;5072838;28;20937;-68
2020/12/18 12:32:29;;;;;;;12.23;8.30;;;10.10;99.90;;;;;;5071773;28;20507;-68
2020/12/18 12:34:55;;;;;;;10.90;7.60;;;10.10;99.90;;;;;;5072578;28;20424;-69
2020/12/18 12:37:22;;;;;;;9.93;7.20;;;10.10;99.90;;;;;;5072459;28;20433;-69
2020/12/18 12:39:49;;;;;;;40.90;22.80;;;10.10;99.90;;;;;;5072472;28;20465;-68
2020/12/18 12:42:16;;;;;;;14.97;10.13;;;10.20;99.90;;;;;;5072166;28;20440;-70
2020/12/18 12:44:42;;;;;;;11.47;7.97;;;10.20;99.90;;;;;;5072804;28;20515;-68
2020/12/18 12:47:10;;;;;;;10.90;7.27;;;10.20;99.90;;;;;;5072765;28;20444;-68